sensor_id;sensor_type;location;lat;lon;timestamp;temperature;humidity
18317;DHT22;9284;52.298;21.164;2023-12-22T00:02:11;4.50;1.00
18317;DHT22;9284;52.298;21.164;2023-12-22T00:04:39;4.40;99.90
18317;DHT22;9284;52.298;21.164;2023-12-22T00:07:07;4.50;99.90
18317;DHT22;9284;52.298;21.164;2023-12-22T00:09:36;4.40;1.00
18317;DHT22;9284;52.298;21.164;2023-12-22T00:12:06;4.40;1.00
18317;DHT22;9284;52.298;21.164;2023-12-22T00:14:34;4.40;99.90
18317;DHT22;9284;52.298;21.164;2023-12-22T00:17:04;4.30;99.90
18317;DHT22;9284;52.298;21.164;2023-12-22T00:19:32;4.40;99.90
18317;DHT22;9284;52.298;21.164;2023-12-22T00:22:01;4.50;99.90
18317;DHT22;9284;52.298;21.164;2023-12-22T00:24:30;4.60;48.40
18317;DHT22;9284;52.298;21.164;2023-12-22T00:26:58;4.60;94.10
18317;DHT22;9284;52.298;21.164;2023-12-22T00:29:28;4.60;99.90
18317;DHT22;9284;52.298;21.164;2023-12-22T00:31:56;4.70;1.00
18317;DHT22;9284;52.298;21.164;2023-12-22T00:34:25;4.80;1.00
18317;DHT22;9284;52.298;21.164;2023-12-22T00:36:53;4.80;1.00
18317;DHT22;9284;52.298;21.164;2023-12-22T00:39:21;4.80;1.00
18317;DHT22;9284;52.298;21.164;2023-12-22T00:41:50;4.90;1.00
18317;DHT22;9284;52.298;21.164;2023-12-22T00:44:18;4.90;1.00
18317;DHT22;9284;52.298;21.164;2023-12-22T00:46:47;4.80;1.00
18317;DHT22;9284;52.298;21.164;2023-12-22T00:49:16;4.90;99.90
18317;DHT22;9284;52.298;21.164;2023-12-22T00:51:45;4.80;99.90
18317;DHT22;9284;52.298;21.164;2023-12-22T00:54:13;4.80;99.90
18317;DHT22;9284;52.298;21.164;2023-12-22T00:56:44;4.70;99.90
18317;DHT22;9284;52.298;21.164;2023-12-22T00:59:12;4.70;99.90
18317;DHT22;9284;52.298;21.164;2023-12-22T01:01:41;4.70;1.00
18317;DHT22;9284;52.298;21.164;2023-12-22T01:04:10;4.70;99.90
18317;DHT22;9284;52.298;21.164;2023-12-22T01:06:39;4.70;1.00
18317;DHT22;9284;52.298;21.164;2023-12-22T01:09:07;4.60;1.00
18317;DHT22;9284;52.298;21.164;2023-12-22T01:11:36;4.60;1.00
18317;DHT22;9284;52.298;21.164;2023-12-22T01:14:04;4.50;1.00
18317;DHT22;9284;52.298;21.164;2023-12-22T01:16:34;4.40;1.00
18317;DHT22;9284;52.298;21.164;2023-12-22T01:19:02;4.50;1.00
18317;DHT22;9284;52.298;21.164;2023-12-22T01:21:32;4.50;1.00
18317;DHT22;9284;52.298;21.164;2023-12-22T01:24:00;4.60;1.00
18317;DHT22;9284;52.298;21.164;2023-12-22T01:26:28;4.50;99.90
18317;DHT22;9284;52.298;21.164;2023-12-22T01:28:57;4.40;99.90
18317;DHT22;9284;52.298;21.164;2023-12-22T01:31:25;4.40;1.00
18317;DHT22;9284;52.298;21.164;2023-12-22T01:33:53;4.30;1.00
18317;DHT22;9284;52.298;21.164;2023-12-22T01:36:22;4.30;99.90
18317;DHT22;9284;52.298;21.164;2023-12-22T01:38:51;4.40;99.90
18317;DHT22;9284;52.298;21.164;2023-12-22T01:41:19;4.40;1.00
18317;DHT22;9284;52.298;21.164;2023-12-22T01:43:48;4.50;99.90
18317;DHT22;9284;52.298;21.164;2023-12-22T01:46:16;4.50;99.90
18317;DHT22;9284;52.298;21.164;2023-12-22T01:48:45;4.40;1.00
18317;DHT22;9284;52.298;21.164;2023-12-22T01:51:14;4.50;1.00
18317;DHT22;9284;52.298;21.164;2023-12-22T01:53:42;4.40;99.90
18317;DHT22;9284;52.298;21.164;2023-12-22T01:56:12;4.50;1.00
18317;DHT22;9284;52.298;21.164;2023-12-22T01:58:40;4.60;99.90
18317;DHT22;9284;52.298;21.164;2023-12-22T02:01:17;4.70;1.00
18317;DHT22;9284;52.298;21.164;2023-12-22T02:03:47;4.70;1.00
18317;DHT22;9284;52.298;21.164;2023-12-22T02:06:16;4.70;99.90
18317;DHT22;9284;52.298;21.164;2023-12-22T02:08:46;4.80;99.90
18317;DHT22;9284;52.298;21.164;2023-12-22T02:11:16;4.70;1.00
18317;DHT22;9284;52.298;21.164;2023-12-22T02:13:44;4.80;1.00
18317;DHT22;9284;52.298;21.164;2023-12-22T02:16:23;4.80;1.00
18317;DHT22;9284;52.298;21.164;2023-12-22T02:18:56;4.90;1.00
18317;DHT22;9284;52.298;21.164;2023-12-22T02:21:27;4.80;99.90
18317;DHT22;9284;52.298;21.164;2023-12-22T02:23:56;4.80;99.90
18317;DHT22;9284;52.298;21.164;2023-12-22T02:26:32;4.70;99.90
18317;DHT22;9284;52.298;21.164;2023-12-22T02:29:01;4.90;1.00
18317;DHT22;9284;52.298;21.164;2023-12-22T02:31:36;4.90;1.00
18317;DHT22;9284;52.298;21.164;2023-12-22T02:34:12;4.90;1.00
18317;DHT22;9284;52.298;21.164;2023-12-22T02:36:42;5.00;1.00
18317;DHT22;9284;52.298;21.164;2023-12-22T02:39:14;4.90;1.00
18317;DHT22;9284;52.298;21.164;2023-12-22T02:41:43;4.90;1.00
18317;DHT22;9284;52.298;21.164;2023-12-22T02:44:12;5.00;99.90
18317;DHT22;9284;52.298;21.164;2023-12-22T02:46:40;5.00;99.90
18317;DHT22;9284;52.298;21.164;2023-12-22T02:49:10;5.00;99.90
18317;DHT22;9284;52.298;21.164;2023-12-22T02:51:40;5.00;99.90
18317;DHT22;9284;52.298;21.164;2023-12-22T02:54:09;5.00;99.90
18317;DHT22;9284;52.298;21.164;2023-12-22T02:56:45;5.10;99.90
18317;DHT22;9284;52.298;21.164;2023-12-22T02:59:14;5.10;99.90
18317;DHT22;9284;52.298;21.164;2023-12-22T03:01:42;5.00;99.90
18317;DHT22;9284;52.298;21.164;2023-12-22T03:04:10;5.10;99.90
18317;DHT22;9284;52.298;21.164;2023-12-22T03:06:39;5.10;99.90
18317;DHT22;9284;52.298;21.164;2023-12-22T03:09:07;5.00;98.80
18317;DHT22;9284;52.298;21.164;2023-12-22T03:11:35;5.10;99.90
18317;DHT22;9284;52.298;21.164;2023-12-22T03:14:05;5.10;88.20
18317;DHT22;9284;52.298;21.164;2023-12-22T03:16:33;5.10;67.70
18317;DHT22;9284;52.298;21.164;2023-12-22T03:19:01;5.20;1.00
18317;DHT22;9284;52.298;21.164;2023-12-22T03:21:30;5.20;1.00
18317;DHT22;9284;52.298;21.164;2023-12-22T03:23:58;5.20;1.00
18317;DHT22;9284;52.298;21.164;2023-12-22T03:26:27;5.10;99.90
18317;DHT22;9284;52.298;21.164;2023-12-22T03:28:55;5.00;1.00
18317;DHT22;9284;52.298;21.164;2023-12-22T03:31:25;4.80;1.00
18317;DHT22;9284;52.298;21.164;2023-12-22T03:33:53;4.80;65.70
18317;DHT22;9284;52.298;21.164;2023-12-22T03:36:21;4.70;99.90
18317;DHT22;9284;52.298;21.164;2023-12-22T03:38:50;4.50;99.90
18317;DHT22;9284;52.298;21.164;2023-12-22T03:41:18;4.50;1.00
18317;DHT22;9284;52.298;21.164;2023-12-22T03:43:46;4.50;1.00
18317;DHT22;9284;52.298;21.164;2023-12-22T03:46:15;4.40;6.80
18317;DHT22;9284;52.298;21.164;2023-12-22T03:48:44;4.40;1.00
18317;DHT22;9284;52.298;21.164;2023-12-22T03:51:13;4.40;1.00
18317;DHT22;9284;52.298;21.164;2023-12-22T03:53:42;4.40;1.00
18317;DHT22;9284;52.298;21.164;2023-12-22T03:56:10;4.40;1.00
18317;DHT22;9284;52.298;21.164;2023-12-22T03:58:38;4.50;1.00
18317;DHT22;9284;52.298;21.164;2023-12-22T04:01:07;4.50;1.00
18317;DHT22;9284;52.298;21.164;2023-12-22T04:03:35;4.50;1.00
18317;DHT22;9284;52.298;21.164;2023-12-22T04:06:05;4.50;1.00
18317;DHT22;9284;52.298;21.164;2023-12-22T04:08:33;4.40;1.00
18317;DHT22;9284;52.298;21.164;2023-12-22T04:11:02;4.40;1.00
18317;DHT22;9284;52.298;21.164;2023-12-22T04:13:30;4.40;1.00
18317;DHT22;9284;52.298;21.164;2023-12-22T04:15:58;4.40;1.00
18317;DHT22;9284;52.298;21.164;2023-12-22T04:18:27;4.30;59.10
18317;DHT22;9284;52.298;21.164;2023-12-22T04:20:55;4.30;99.90
18317;DHT22;9284;52.298;21.164;2023-12-22T04:23:25;4.30;99.90
18317;DHT22;9284;52.298;21.164;2023-12-22T04:25:53;4.30;99.90
18317;DHT22;9284;52.298;21.164;2023-12-22T04:28:21;4.30;1.00
18317;DHT22;9284;52.298;21.164;2023-12-22T04:30:50;4.30;1.00
18317;DHT22;9284;52.298;21.164;2023-12-22T04:33:18;4.30;1.00
18317;DHT22;9284;52.298;21.164;2023-12-22T04:35:46;4.30;1.00
18317;DHT22;9284;52.298;21.164;2023-12-22T04:38:14;4.30;99.90
18317;DHT22;9284;52.298;21.164;2023-12-22T04:40:44;4.40;90.00
18317;DHT22;9284;52.298;21.164;2023-12-22T04:43:13;4.40;1.00
18317;DHT22;9284;52.298;21.164;2023-12-22T04:45:41;4.50;1.00
18317;DHT22;9284;52.298;21.164;2023-12-22T04:48:09;4.50;99.90
18317;DHT22;9284;52.298;21.164;2023-12-22T04:50:38;4.50;99.90
18317;DHT22;9284;52.298;21.164;2023-12-22T04:53:06;4.50;99.90
18317;DHT22;9284;52.298;21.164;2023-12-22T04:55:34;4.50;99.90
18317;DHT22;9284;52.298;21.164;2023-12-22T04:58:04;4.50;99.90
18317;DHT22;9284;52.298;21.164;2023-12-22T05:00:32;4.50;99.90
18317;DHT22;9284;52.298;21.164;2023-12-22T05:03:01;4.50;99.90
18317;DHT22;9284;52.298;21.164;2023-12-22T05:05:30;4.50;1.00
18317;DHT22;9284;52.298;21.164;2023-12-22T05:07:57;4.50;1.00
18317;DHT22;9284;52.298;21.164;2023-12-22T05:10:26;4.40;1.00
18317;DHT22;9284;52.298;21.164;2023-12-22T05:12:54;4.40;1.00
18317;DHT22;9284;52.298;21.164;2023-12-22T05:15:24;4.40;1.00
18317;DHT22;9284;52.298;21.164;2023-12-22T05:17:53;4.30;1.00
18317;DHT22;9284;52.298;21.164;2023-12-22T05:20:21;4.30;1.00
18317;DHT22;9284;52.298;21.164;2023-12-22T05:22:50;4.30;1.00
18317;DHT22;9284;52.298;21.164;2023-12-22T05:25:18;4.30;1.00
18317;DHT22;9284;52.298;21.164;2023-12-22T05:27:46;4.30;1.00
18317;DHT22;9284;52.298;21.164;2023-12-22T05:30:15;4.20;1.00
18317;DHT22;9284;52.298;21.164;2023-12-22T05:32:45;4.20;1.00
18317;DHT22;9284;52.298;21.164;2023-12-22T05:35:13;4.30;1.00
18317;DHT22;9284;52.298;21.164;2023-12-22T05:37:42;4.30;1.00
18317;DHT22;9284;52.298;21.164;2023-12-22T05:40:10;4.30;1.00
18317;DHT22;9284;52.298;21.164;2023-12-22T05:42:39;4.30;1.00
18317;DHT22;9284;52.298;21.164;2023-12-22T05:45:08;4.30;1.00
18317;DHT22;9284;52.298;21.164;2023-12-22T05:47:38;4.40;1.00
18317;DHT22;9284;52.298;21.164;2023-12-22T05:50:08;4.40;1.00
18317;DHT22;9284;52.298;21.164;2023-12-22T05:52:38;4.30;1.00
18317;DHT22;9284;52.298;21.164;2023-12-22T05:55:07;4.40;1.00
18317;DHT22;9284;52.298;21.164;2023-12-22T05:57:36;4.30;1.00
18317;DHT22;9284;52.298;21.164;2023-12-22T06:00:05;4.30;1.00
18317;DHT22;9284;52.298;21.164;2023-12-22T06:02:34;4.20;99.90
18317;DHT22;9284;52.298;21.164;2023-12-22T06:05:03;4.10;1.00
18317;DHT22;9284;52.298;21.164;2023-12-22T06:07:33;4.00;1.00
18317;DHT22;9284;52.298;21.164;2023-12-22T06:10:01;3.90;1.00
18317;DHT22;9284;52.298;21.164;2023-12-22T06:12:29;3.90;99.90
18317;DHT22;9284;52.298;21.164;2023-12-22T06:14:58;3.80;99.90
18317;DHT22;9284;52.298;21.164;2023-12-22T06:17:26;3.80;99.90
18317;DHT22;9284;52.298;21.164;2023-12-22T06:19:54;3.80;1.00
18317;DHT22;9284;52.298;21.164;2023-12-22T06:22:22;3.80;99.90
18317;DHT22;9284;52.298;21.164;2023-12-22T06:24:52;3.70;1.00
18317;DHT22;9284;52.298;21.164;2023-12-22T06:27:21;3.80;1.00
18317;DHT22;9284;52.298;21.164;2023-12-22T06:29:49;3.80;1.00
18317;DHT22;9284;52.298;21.164;2023-12-22T06:32:17;3.80;1.00
18317;DHT22;9284;52.298;21.164;2023-12-22T06:34:46;3.80;99.90
18317;DHT22;9284;52.298;21.164;2023-12-22T06:37:14;3.90;1.00
18317;DHT22;9284;52.298;21.164;2023-12-22T06:39:43;4.00;1.00
18317;DHT22;9284;52.298;21.164;2023-12-22T06:42:13;4.10;99.90
18317;DHT22;9284;52.298;21.164;2023-12-22T06:44:41;4.10;99.90
18317;DHT22;9284;52.298;21.164;2023-12-22T06:47:10;4.20;44.90
18317;DHT22;9284;52.298;21.164;2023-12-22T06:49:39;4.30;5.30
18317;DHT22;9284;52.298;21.164;2023-12-22T06:52:08;4.30;1.00
18317;DHT22;9284;52.298;21.164;2023-12-22T06:54:36;4.30;1.00
18317;DHT22;9284;52.298;21.164;2023-12-22T06:57:04;4.40;1.00
18317;DHT22;9284;52.298;21.164;2023-12-22T06:59:35;4.40;1.00
18317;DHT22;9284;52.298;21.164;2023-12-22T07:02:05;4.50;1.00
18317;DHT22;9284;52.298;21.164;2023-12-22T07:05:34;4.40;1.00
18317;DHT22;9284;52.298;21.164;2023-12-22T07:08:06;4.40;1.00
18317;DHT22;9284;52.298;21.164;2023-12-22T07:10:34;4.40;1.00
18317;DHT22;9284;52.298;21.164;2023-12-22T07:13:03;4.50;1.00
18317;DHT22;9284;52.298;21.164;2023-12-22T07:15:34;4.50;1.00
18317;DHT22;9284;52.298;21.164;2023-12-22T07:18:02;4.50;1.00
18317;DHT22;9284;52.298;21.164;2023-12-22T07:20:32;4.60;1.00
18317;DHT22;9284;52.298;21.164;2023-12-22T07:23:00;4.60;99.90
18317;DHT22;9284;52.298;21.164;2023-12-22T07:25:28;4.60;99.90
18317;DHT22;9284;52.298;21.164;2023-12-22T07:27:59;4.60;99.90
18317;DHT22;9284;52.298;21.164;2023-12-22T07:30:28;4.60;99.90
18317;DHT22;9284;52.298;21.164;2023-12-22T07:32:58;4.50;99.90
18317;DHT22;9284;52.298;21.164;2023-12-22T07:35:26;4.60;99.90
18317;DHT22;9284;52.298;21.164;2023-12-22T07:37:56;4.50;99.90
18317;DHT22;9284;52.298;21.164;2023-12-22T07:40:25;4.70;99.90
18317;DHT22;9284;52.298;21.164;2023-12-22T07:42:53;4.40;99.90
18317;DHT22;9284;52.298;21.164;2023-12-22T07:45:21;4.50;99.90
18317;DHT22;9284;52.298;21.164;2023-12-22T07:47:53;4.40;99.90
18317;DHT22;9284;52.298;21.164;2023-12-22T07:50:23;4.40;99.90
18317;DHT22;9284;52.298;21.164;2023-12-22T07:52:52;4.40;99.90
18317;DHT22;9284;52.298;21.164;2023-12-22T07:55:22;4.40;99.90
18317;DHT22;9284;52.298;21.164;2023-12-22T07:57:51;4.60;99.90
18317;DHT22;9284;52.298;21.164;2023-12-22T08:00:19;4.40;99.90
18317;DHT22;9284;52.298;21.164;2023-12-22T08:02:48;4.20;99.90
18317;DHT22;9284;52.298;21.164;2023-12-22T08:05:16;4.10;99.90
18317;DHT22;9284;52.298;21.164;2023-12-22T08:07:47;4.10;99.90
18317;DHT22;9284;52.298;21.164;2023-12-22T08:10:16;4.10;99.90
18317;DHT22;9284;52.298;21.164;2023-12-22T08:12:44;4.10;99.90
18317;DHT22;9284;52.298;21.164;2023-12-22T08:15:12;4.10;99.90
18317;DHT22;9284;52.298;21.164;2023-12-22T08:17:57;4.10;99.90
18317;DHT22;9284;52.298;21.164;2023-12-22T08:20:25;4.10;99.90
18317;DHT22;9284;52.298;21.164;2023-12-22T08:23:04;4.20;99.90
18317;DHT22;9284;52.298;21.164;2023-12-22T08:25:39;4.30;99.90
18317;DHT22;9284;52.298;21.164;2023-12-22T08:28:11;4.30;99.90
18317;DHT22;9284;52.298;21.164;2023-12-22T08:30:40;4.30;99.90
18317;DHT22;9284;52.298;21.164;2023-12-22T08:33:10;4.20;99.90
18317;DHT22;9284;52.298;21.164;2023-12-22T08:35:38;4.30;99.90
18317;DHT22;9284;52.298;21.164;2023-12-22T08:38:08;4.30;99.90
18317;DHT22;9284;52.298;21.164;2023-12-22T08:40:37;4.30;99.90
18317;DHT22;9284;52.298;21.164;2023-12-22T08:43:06;4.30;99.90
18317;DHT22;9284;52.298;21.164;2023-12-22T08:45:34;4.30;99.90
18317;DHT22;9284;52.298;21.164;2023-12-22T08:48:03;4.20;99.90
18317;DHT22;9284;52.298;21.164;2023-12-22T08:50:35;4.20;99.90
18317;DHT22;9284;52.298;21.164;2023-12-22T08:53:03;4.20;99.90
18317;DHT22;9284;52.298;21.164;2023-12-22T08:55:33;4.20;99.90
18317;DHT22;9284;52.298;21.164;2023-12-22T08:58:02;4.10;99.90
18317;DHT22;9284;52.298;21.164;2023-12-22T09:00:30;4.10;99.90
18317;DHT22;9284;52.298;21.164;2023-12-22T09:02:59;4.20;99.90
18317;DHT22;9284;52.298;21.164;2023-12-22T09:05:27;4.20;99.90
18317;DHT22;9284;52.298;21.164;2023-12-22T09:07:55;4.30;99.90
18317;DHT22;9284;52.298;21.164;2023-12-22T09:10:24;4.30;99.90
18317;DHT22;9284;52.298;21.164;2023-12-22T09:12:54;4.20;99.90
18317;DHT22;9284;52.298;21.164;2023-12-22T09:15:22;4.10;99.90
18317;DHT22;9284;52.298;21.164;2023-12-22T09:17:50;4.10;1.00
18317;DHT22;9284;52.298;21.164;2023-12-22T09:20:20;4.00;1.00
18317;DHT22;9284;52.298;21.164;2023-12-22T09:22:49;4.00;1.00
18317;DHT22;9284;52.298;21.164;2023-12-22T09:25:17;3.90;1.00
18317;DHT22;9284;52.298;21.164;2023-12-22T09:27:46;4.00;1.00
18317;DHT22;9284;52.298;21.164;2023-12-22T09:30:16;4.10;1.00
18317;DHT22;9284;52.298;21.164;2023-12-22T09:32:44;4.20;1.00
18317;DHT22;9284;52.298;21.164;2023-12-22T09:35:15;4.30;99.90
18317;DHT22;9284;52.298;21.164;2023-12-22T09:37:43;4.30;99.90
18317;DHT22;9284;52.298;21.164;2023-12-22T09:40:12;4.30;99.90
18317;DHT22;9284;52.298;21.164;2023-12-22T09:42:42;4.30;99.90
18317;DHT22;9284;52.298;21.164;2023-12-22T09:45:12;4.30;99.90
18317;DHT22;9284;52.298;21.164;2023-12-22T09:47:42;4.30;99.90
18317;DHT22;9284;52.298;21.164;2023-12-22T09:50:12;4.40;99.90
18317;DHT22;9284;52.298;21.164;2023-12-22T09:52:43;4.50;99.90
18317;DHT22;9284;52.298;21.164;2023-12-22T09:55:13;4.60;99.90
18317;DHT22;9284;52.298;21.164;2023-12-22T09:57:49;4.70;99.90
18317;DHT22;9284;52.298;21.164;2023-12-22T10:00:18;4.70;99.90
18317;DHT22;9284;52.298;21.164;2023-12-22T10:02:49;5.10;99.90
18317;DHT22;9284;52.298;21.164;2023-12-22T10:05:21;5.10;99.90
18317;DHT22;9284;52.298;21.164;2023-12-22T10:07:50;5.00;99.90
18317;DHT22;9284;52.298;21.164;2023-12-22T10:10:20;4.80;99.90
18317;DHT22;9284;52.298;21.164;2023-12-22T10:12:51;4.50;99.90
18317;DHT22;9284;52.298;21.164;2023-12-22T10:15:21;4.10;1.00
18317;DHT22;9284;52.298;21.164;2023-12-22T10:17:53;3.70;1.00
18317;DHT22;9284;52.298;21.164;2023-12-22T10:20:21;3.40;5.10
18317;DHT22;9284;52.298;21.164;2023-12-22T10:22:50;3.40;1.00
18317;DHT22;9284;52.298;21.164;2023-12-22T10:25:20;2.70;1.00
18317;DHT22;9284;52.298;21.164;2023-12-22T10:27:51;2.00;1.00
18317;DHT22;9284;52.298;21.164;2023-12-22T10:30:21;1.80;99.90
18317;DHT22;9284;52.298;21.164;2023-12-22T10:32:53;1.70;99.90
18317;DHT22;9284;52.298;21.164;2023-12-22T10:35:23;1.70;99.90
18317;DHT22;9284;52.298;21.164;2023-12-22T10:37:51;1.80;1.00
18317;DHT22;9284;52.298;21.164;2023-12-22T10:40:26;1.80;99.90
18317;DHT22;9284;52.298;21.164;2023-12-22T10:42:55;1.60;99.90
18317;DHT22;9284;52.298;21.164;2023-12-22T10:45:23;1.60;1.00
18317;DHT22;9284;52.298;21.164;2023-12-22T10:47:54;1.50;1.00
18317;DHT22;9284;52.298;21.164;2023-12-22T10:50:22;1.40;1.00
18317;DHT22;9284;52.298;21.164;2023-12-22T10:52:52;1.30;26.70
18317;DHT22;9284;52.298;21.164;2023-12-22T10:55:21;1.20;99.90
18317;DHT22;9284;52.298;21.164;2023-12-22T10:57:50;1.10;1.00
18317;DHT22;9284;52.298;21.164;2023-12-22T11:00:20;1.10;1.00
18317;DHT22;9284;52.298;21.164;2023-12-22T11:02:49;1.10;1.00
18317;DHT22;9284;52.298;21.164;2023-12-22T11:05:26;1.10;99.90
18317;DHT22;9284;52.298;21.164;2023-12-22T11:07:59;1.10;1.00
18317;DHT22;9284;52.298;21.164;2023-12-22T11:10:31;1.00;1.00
18317;DHT22;9284;52.298;21.164;2023-12-22T11:13:00;1.20;1.00
18317;DHT22;9284;52.298;21.164;2023-12-22T11:15:33;1.20;1.00
18317;DHT22;9284;52.298;21.164;2023-12-22T11:18:02;1.20;99.90
18317;DHT22;9284;52.298;21.164;2023-12-22T11:20:35;1.30;99.90
18317;DHT22;9284;52.298;21.164;2023-12-22T11:23:04;1.30;99.90
18317;DHT22;9284;52.298;21.164;2023-12-22T11:25:35;1.40;1.00
18317;DHT22;9284;52.298;21.164;2023-12-22T11:28:04;1.50;1.00
18317;DHT22;9284;52.298;21.164;2023-12-22T11:30:34;1.60;99.90
18317;DHT22;9284;52.298;21.164;2023-12-22T11:33:04;1.70;1.00
18317;DHT22;9284;52.298;21.164;2023-12-22T11:35:34;1.80;1.00
18317;DHT22;9284;52.298;21.164;2023-12-22T11:42:31;2.00;1.00
18317;DHT22;9284;52.298;21.164;2023-12-22T11:45:06;2.10;99.90
18317;DHT22;9284;52.298;21.164;2023-12-22T11:47:37;2.20;1.00
18317;DHT22;9284;52.298;21.164;2023-12-22T11:50:11;2.20;99.90
18317;DHT22;9284;52.298;21.164;2023-12-22T11:52:49;2.50;99.90
18317;DHT22;9284;52.298;21.164;2023-12-22T11:55:57;2.60;99.90
18317;DHT22;9284;52.298;21.164;2023-12-22T11:58:40;2.50;99.90
18317;DHT22;9284;52.298;21.164;2023-12-22T12:01:10;2.50;99.90
18317;DHT22;9284;52.298;21.164;2023-12-22T12:03:48;2.50;1.00
18317;DHT22;9284;52.298;21.164;2023-12-22T12:06:31;2.80;1.00
18317;DHT22;9284;52.298;21.164;2023-12-22T12:09:04;2.40;1.00
18317;DHT22;9284;52.298;21.164;2023-12-22T12:12:09;2.40;1.00
18317;DHT22;9284;52.298;21.164;2023-12-22T12:14:41;2.40;1.00
18317;DHT22;9284;52.298;21.164;2023-12-22T12:17:15;2.50;99.90
18317;DHT22;9284;52.298;21.164;2023-12-22T12:19:47;2.50;99.90
18317;DHT22;9284;52.298;21.164;2023-12-22T12:22:17;2.50;1.00
18317;DHT22;9284;52.298;21.164;2023-12-22T12:24:46;2.60;99.90
18317;DHT22;9284;52.298;21.164;2023-12-22T12:27:18;2.70;99.90
18317;DHT22;9284;52.298;21.164;2023-12-22T12:29:47;2.60;99.90
18317;DHT22;9284;52.298;21.164;2023-12-22T12:32:15;2.60;1.00
18317;DHT22;9284;52.298;21.164;2023-12-22T12:34:44;2.60;99.90
18317;DHT22;9284;52.298;21.164;2023-12-22T12:37:14;2.60;1.00
18317;DHT22;9284;52.298;21.164;2023-12-22T12:39:43;2.60;99.90
18317;DHT22;9284;52.298;21.164;2023-12-22T12:42:16;2.60;99.90
18317;DHT22;9284;52.298;21.164;2023-12-22T12:44:45;2.60;99.90
18317;DHT22;9284;52.298;21.164;2023-12-22T12:47:15;2.60;99.90
18317;DHT22;9284;52.298;21.164;2023-12-22T12:49:44;2.50;99.90
18317;DHT22;9284;52.298;21.164;2023-12-22T12:52:13;2.50;99.90
18317;DHT22;9284;52.298;21.164;2023-12-22T12:54:42;2.50;99.90
18317;DHT22;9284;52.298;21.164;2023-12-22T12:57:15;2.50;99.90
18317;DHT22;9284;52.298;21.164;2023-12-22T12:59:47;2.50;1.00
18317;DHT22;9284;52.298;21.164;2023-12-22T13:02:16;2.40;1.00
18317;DHT22;9284;52.298;21.164;2023-12-22T13:04:45;2.40;99.90
18317;DHT22;9284;52.298;21.164;2023-12-22T13:07:13;2.40;1.00
18317;DHT22;9284;52.298;21.164;2023-12-22T13:09:41;2.30;1.00
18317;DHT22;9284;52.298;21.164;2023-12-22T13:12:10;2.30;99.90
18317;DHT22;9284;52.298;21.164;2023-12-22T13:14:40;2.20;1.00
18317;DHT22;9284;52.298;21.164;2023-12-22T13:17:08;2.20;99.90
18317;DHT22;9284;52.298;21.164;2023-12-22T13:19:37;2.30;1.00
18317;DHT22;9284;52.298;21.164;2023-12-22T13:22:06;2.20;1.00
18317;DHT22;9284;52.298;21.164;2023-12-22T13:24:35;2.30;1.00
18317;DHT22;9284;52.298;21.164;2023-12-22T13:27:04;2.20;1.00
18317;DHT22;9284;52.298;21.164;2023-12-22T13:29:44;2.20;1.00
18317;DHT22;9284;52.298;21.164;2023-12-22T13:32:16;2.20;99.90
18317;DHT22;9284;52.298;21.164;2023-12-22T13:34:49;2.20;1.00
18317;DHT22;9284;52.298;21.164;2023-12-22T13:37:18;2.20;1.00
18317;DHT22;9284;52.298;21.164;2023-12-22T13:39:47;2.20;1.00
18317;DHT22;9284;52.298;21.164;2023-12-22T13:42:16;2.20;99.90
18317;DHT22;9284;52.298;21.164;2023-12-22T13:44:48;2.20;1.00
18317;DHT22;9284;52.298;21.164;2023-12-22T13:47:17;2.10;99.90
18317;DHT22;9284;52.298;21.164;2023-12-22T13:49:45;2.10;1.00
18317;DHT22;9284;52.298;21.164;2023-12-22T13:52:27;2.10;1.00
18317;DHT22;9284;52.298;21.164;2023-12-22T13:54:58;2.00;99.90
18317;DHT22;9284;52.298;21.164;2023-12-22T13:57:28;2.00;1.00
18317;DHT22;9284;52.298;21.164;2023-12-22T13:59:59;2.00;1.00
18317;DHT22;9284;52.298;21.164;2023-12-22T14:02:30;1.90;1.00
18317;DHT22;9284;52.298;21.164;2023-12-22T14:04:58;1.90;99.90
18317;DHT22;9284;52.298;21.164;2023-12-22T14:07:30;2.00;99.90
18317;DHT22;9284;52.298;21.164;2023-12-22T14:10:04;2.70;1.00
18317;DHT22;9284;52.298;21.164;2023-12-22T14:12:35;2.10;1.00
18317;DHT22;9284;52.298;21.164;2023-12-22T14:15:08;1.80;57.00
18317;DHT22;9284;52.298;21.164;2023-12-22T14:17:37;1.80;99.90
18317;DHT22;9284;52.298;21.164;2023-12-22T14:20:06;1.80;1.00
18317;DHT22;9284;52.298;21.164;2023-12-22T14:22:37;1.80;1.00
18317;DHT22;9284;52.298;21.164;2023-12-22T14:25:07;1.70;1.00
18317;DHT22;9284;52.298;21.164;2023-12-22T14:27:36;1.70;1.00
18317;DHT22;9284;52.298;21.164;2023-12-22T14:30:10;1.80;1.00
18317;DHT22;9284;52.298;21.164;2023-12-22T14:32:41;1.70;1.00
18317;DHT22;9284;52.298;21.164;2023-12-22T14:35:09;1.70;1.00
18317;DHT22;9284;52.298;21.164;2023-12-22T14:37:38;1.80;1.00
18317;DHT22;9284;52.298;21.164;2023-12-22T14:40:07;1.70;1.00
18317;DHT22;9284;52.298;21.164;2023-12-22T14:42:36;1.70;7.20
18317;DHT22;9284;52.298;21.164;2023-12-22T14:45:08;1.70;99.90
18317;DHT22;9284;52.298;21.164;2023-12-22T14:47:38;1.60;99.90
18317;DHT22;9284;52.298;21.164;2023-12-22T14:50:13;2.00;99.90
18317;DHT22;9284;52.298;21.164;2023-12-22T14:52:44;1.90;99.90
18317;DHT22;9284;52.298;21.164;2023-12-22T14:55:13;1.60;99.90
18317;DHT22;9284;52.298;21.164;2023-12-22T14:57:44;1.60;99.90
18317;DHT22;9284;52.298;21.164;2023-12-22T15:00:14;1.70;99.90
18317;DHT22;9284;52.298;21.164;2023-12-22T15:02:45;1.60;99.90
18317;DHT22;9284;52.298;21.164;2023-12-22T15:05:17;1.80;99.90
18317;DHT22;9284;52.298;21.164;2023-12-22T15:07:48;1.90;99.90
18317;DHT22;9284;52.298;21.164;2023-12-22T15:10:18;1.80;99.90
18317;DHT22;9284;52.298;21.164;2023-12-22T15:12:47;1.70;99.90
18317;DHT22;9284;52.298;21.164;2023-12-22T15:15:21;1.80;99.90
18317;DHT22;9284;52.298;21.164;2023-12-22T15:17:51;1.60;99.90
18317;DHT22;9284;52.298;21.164;2023-12-22T15:20:20;1.50;99.90
18317;DHT22;9284;52.298;21.164;2023-12-22T15:22:48;1.70;99.90
18317;DHT22;9284;52.298;21.164;2023-12-22T15:25:17;1.50;99.90
18317;DHT22;9284;52.298;21.164;2023-12-22T15:27:48;1.40;99.90
18317;DHT22;9284;52.298;21.164;2023-12-22T15:30:17;1.60;99.90
18317;DHT22;9284;52.298;21.164;2023-12-22T15:32:47;1.50;1.00
18317;DHT22;9284;52.298;21.164;2023-12-22T15:35:20;1.50;1.00
18317;DHT22;9284;52.298;21.164;2023-12-22T15:37:53;1.60;1.00
18317;DHT22;9284;52.298;21.164;2023-12-22T15:40:30;1.50;1.00
18317;DHT22;9284;52.298;21.164;2023-12-22T15:43:00;1.50;1.00
18317;DHT22;9284;52.298;21.164;2023-12-22T15:45:37;1.50;1.00
18317;DHT22;9284;52.298;21.164;2023-12-22T15:48:08;1.50;1.00
18317;DHT22;9284;52.298;21.164;2023-12-22T15:50:40;1.60;1.00
18317;DHT22;9284;52.298;21.164;2023-12-22T15:53:09;1.60;1.00
18317;DHT22;9284;52.298;21.164;2023-12-22T15:55:41;1.60;1.00
18317;DHT22;9284;52.298;21.164;2023-12-22T15:58:19;1.50;1.00
18317;DHT22;9284;52.298;21.164;2023-12-22T16:00:48;1.60;1.00
18317;DHT22;9284;52.298;21.164;2023-12-22T16:03:22;1.60;1.00
18317;DHT22;9284;52.298;21.164;2023-12-22T16:05:52;1.60;1.00
18317;DHT22;9284;52.298;21.164;2023-12-22T16:08:21;1.60;1.00
18317;DHT22;9284;52.298;21.164;2023-12-22T16:10:53;1.60;1.00
18317;DHT22;9284;52.298;21.164;2023-12-22T16:13:22;1.70;1.00
18317;DHT22;9284;52.298;21.164;2023-12-22T16:15:51;1.70;1.00
18317;DHT22;9284;52.298;21.164;2023-12-22T16:18:23;1.80;1.00